Time;durP1;ratioP1;P1;durP2;ratioP2;P2;SDS_P1;SDS_P2;PMS_P1;PMS_P2;Temp;Humidity;BMP_temperature;BMP_pressure;BME280_temperature;BME280_humidity;BME280_pressure;Samples;Min_cycle;Max_cycle;Signal;HPM_P1;HPM_P2
2021/10/03 11:27:09;;;;;;;1.52;0.98;;;16.00;99.90;;;;;;14708692;22;5800557;-70
2021/10/03 11:32:56;;;;;;;1.20;1.10;;;16.00;99.90;;;;;;14530297;23;20086;-69
2021/10/03 11:38:49;;;;;;;0.77;0.77;;;15.90;99.90;;;;;;14659760;23;20135;-70
2021/10/03 11:56:46;;;;;;;0.63;0.63;;;16.60;99.90;;;;;;14674388;23;20028;-68
2021/10/03 12:02:56;;;;;;;4.40;0.80;;;16.70;99.90;;;;;;14740548;22;20095;-69
2021/10/03 12:08:51;;;;;;;2.35;0.88;;;16.90;99.90;;;;;;14514426;23;20057;-69
2021/10/03 12:14:46;;;;;;;1.08;0.65;;;17.20;99.90;;;;;;14645543;23;20025;-68
2021/10/03 12:21:06;;;;;;;2.00;0.73;;;16.80;99.90;;;;;;14744392;22;20580;-68
2021/10/03 12:26:55;;;;;;;0.70;0.50;;;16.80;99.90;;;;;;14653008;23;20029;-69
2021/10/03 12:33:08;;;;;;;0.93;0.60;;;16.80;99.90;;;;;;14640642;23;20581;-69
2021/10/03 12:38:57;;;;;;;3.50;0.50;;;16.80;99.90;;;;;;14714705;23;20080;-70
2021/10/03 12:44:49;;;;;;;0.45;0.43;;;17.10;99.90;;;;;;14614949;22;20483;-70
2021/10/03 12:50:37;;;;;;;1.37;0.40;;;17.30;99.90;;;;;;14716861;22;20410;-70
2021/10/03 12:56:27;;;;;;;1.10;0.52;;;17.10;99.90;;;;;;14675521;22;20056;-70
2021/10/03 13:02:21;;;;;;;3.75;0.40;;;17.10;99.90;;;;;;14706730;22;20032;-70
2021/10/03 13:08:10;;;;;;;0.60;0.50;;;17.00;99.90;;;;;;14676006;22;20402;-70
2021/10/03 13:14:23;;;;;;;0.77;0.50;;;17.30;99.90;;;;;;14715636;22;20031;-70
2021/10/03 13:20:11;;;;;;;1.77;0.60;;;17.50;99.90;;;;;;14728681;22;20025;-70
2021/10/03 13:26:00;;;;;;;1.95;0.50;;;17.70;99.90;;;;;;14677462;22;20028;-70
2021/10/03 13:31:51;;;;;;;2.92;0.57;;;17.60;99.90;;;;;;14677800;23;20052;-70
2021/10/03 13:37:40;;;;;;;2.10;0.70;;;17.50;99.90;;;;;;14669886;23;21164;-70
2021/10/03 13:49:53;;;;;;;1.98;0.60;;;17.50;99.90;;;;;;14720829;23;20020;-70
2021/10/03 13:55:41;;;;;;;1.48;0.55;;;17.30;99.90;;;;;;14682001;22;20079;-71
2021/10/03 14:01:28;;;;;;;1.60;0.30;;;17.40;99.90;;;;;;14725823;22;20449;-71
2021/10/03 14:13:17;;;;;;;1.10;0.40;;;17.20;99.90;;;;;;14715311;23;20017;-71
2021/10/03 14:19:05;;;;;;;2.70;0.75;;;17.20;99.90;;;;;;14682579;22;20371;-71
2021/10/03 14:24:55;;;;;;;2.78;0.50;;;17.00;99.90;;;;;;14709319;23;20107;-70
2021/10/03 14:30:43;;;;;;;1.80;0.60;;;17.30;99.90;;;;;;14699592;23;20021;-70
2021/10/03 14:36:31;;;;;;;2.15;0.40;;;17.50;99.90;;;;;;14677408;23;20099;-70
2021/10/03 14:42:22;;;;;;;3.60;1.73;;;17.40;99.90;;;;;;14655204;23;20106;-68
2021/10/03 14:48:12;;;;;;;1.48;1.00;;;17.40;99.90;;;;;;14680406;23;20435;-68
2021/10/03 14:54:01;;;;;;;1.60;0.80;;;17.80;99.90;;;;;;14723947;22;20023;-69
2021/10/03 14:59:55;;;;;;;4.18;0.80;;;17.90;99.90;;;;;;14660628;23;20045;-70
2021/10/03 15:18:08;;;;;;;5.13;0.60;;;18.00;99.90;;;;;;14724198;23;20029;-66
2021/10/03 15:29:58;;;;;;;1.67;0.75;;;17.90;99.90;;;;;;14639503;23;20021;-68
2021/10/03 15:35:47;;;;;;;1.98;0.82;;;18.00;99.90;;;;;;14692900;23;20490;-66
2021/10/03 15:41:34;;;;;;;2.95;0.80;;;18.00;99.90;;;;;;14707480;23;20029;-69
2021/10/03 15:59:32;;;;;;;1.50;0.80;;;17.80;99.90;;;;;;14659515;23;20021;-69
2021/10/03 16:05:19;;;;;;;5.88;1.25;;;17.90;99.90;;;;;;14683449;23;20029;-69
2021/10/03 16:11:07;;;;;;;1.35;1.23;;;17.90;99.90;;;;;;14681743;23;20383;-70
2021/10/03 16:16:54;;;;;;;3.05;1.25;;;17.90;99.90;;;;;;14684310;23;20033;-70
2021/10/03 16:22:40;;;;;;;6.28;1.38;;;17.80;99.90;;;;;;14685425;23;20029;-69
2021/10/03 16:28:31;;;;;;;7.43;1.20;;;17.80;99.90;;;;;;14685787;23;20039;-69
2021/10/03 16:34:18;;;;;;;2.67;1.10;;;17.80;99.90;;;;;;14684210;23;20028;-70
2021/10/03 16:40:06;;;;;;;2.08;1.00;;;17.80;99.90;;;;;;14684121;23;20032;-69
2021/10/03 16:45:55;;;;;;;2.90;1.30;;;18.00;99.90;;;;;;14683496;23;20442;-70
2021/10/03 16:51:41;;;;;;;5.93;1.08;;;18.10;99.90;;;;;;14683434;23;20021;-69
2021/10/03 16:57:28;;;;;;;5.75;1.15;;;18.00;99.90;;;;;;14680753;23;20730;-69
2021/10/03 17:03:17;;;;;;;4.70;1.20;;;17.90;99.90;;;;;;14682457;23;20549;-69
2021/10/03 17:09:04;;;;;;;4.90;0.90;;;17.90;99.90;;;;;;14682342;23;20025;-69
2021/10/03 17:14:50;;;;;;;2.97;1.00;;;17.90;99.90;;;;;;14683046;23;20039;-69
2021/10/03 17:20:39;;;;;;;3.17;1.27;;;17.80;99.90;;;;;;14682290;23;20032;-69
2021/10/03 17:26:30;;;;;;;2.63;1.52;;;17.80;99.90;;;;;;14704464;23;20053;-67
2021/10/03 17:32:19;;;;;;;10.00;2.75;;;17.80;99.90;;;;;;14622170;23;20637;-69
2021/10/03 17:38:30;;;;;;;7.43;2.60;;;17.70;99.90;;;;;;14510055;23;20033;-67
2021/10/03 17:44:16;;;;;;;8.40;2.75;;;17.60;99.90;;;;;;14674675;23;20034;-66
2021/10/03 17:50:05;;;;;;;4.57;2.95;;;17.50;99.90;;;;;;14681698;23;20036;-68
2021/10/03 17:56:16;;;;;;;8.80;2.65;;;17.50;99.90;;;;;;14677926;23;20033;-67
2021/10/03 18:02:04;;;;;;;7.00;2.95;;;17.40;99.90;;;;;;14684548;23;20025;-68
2021/10/03 18:07:54;;;;;;;6.75;2.92;;;17.30;99.90;;;;;;14611149;23;20025;-67
2021/10/03 18:19:43;;;;;;;7.35;2.67;;;17.10;99.90;;;;;;14718953;22;20037;-67
2021/10/03 18:25:30;;;;;;;4.43;2.35;;;17.10;99.90;;;;;;14711647;23;20056;-66
2021/10/03 18:31:18;;;;;;;8.70;2.92;;;17.00;99.90;;;;;;14679732;23;20382;-65
2021/10/03 18:37:05;;;;;;;7.20;2.70;;;17.00;99.90;;;;;;14680734;23;20305;-66
2021/10/03 18:42:52;;;;;;;5.07;2.55;;;16.90;99.90;;;;;;14678302;23;20026;-66
2021/10/03 18:48:41;;;;;;;5.13;2.95;;;16.90;99.90;;;;;;14681363;23;20027;-66
2021/10/03 18:54:28;;;;;;;11.48;2.10;;;16.80;99.90;;;;;;14679980;23;20372;-65
2021/10/03 19:00:16;;;;;;;2.33;1.50;;;16.70;99.90;;;;;;14706201;23;20100;-66
2021/10/03 19:06:04;;;;;;;9.38;1.77;;;16.60;99.90;;;;;;14711402;23;20021;-65
2021/10/03 19:11:51;;;;;;;4.05;1.75;;;16.60;99.90;;;;;;14711798;23;20104;-66
2021/10/03 19:17:38;;;;;;;5.07;1.50;;;16.50;99.90;;;;;;14710607;23;20100;-66
2021/10/03 19:23:26;;;;;;;4.40;1.73;;;16.50;99.90;;;;;;14717948;23;20487;-64
2021/10/03 19:29:13;;;;;;;9.15;2.40;;;16.50;99.90;;;;;;14639609;23;20043;-65
2021/10/03 19:35:00;;;;;;;6.32;2.08;;;16.50;99.90;;;;;;14711638;23;20027;-66
2021/10/03 19:40:49;;;;;;;7.00;2.00;;;16.50;99.90;;;;;;14715598;23;20471;-65
2021/10/03 19:46:37;;;;;;;5.85;1.70;;;16.50;99.90;;;;;;14715428;23;20104;-65
2021/10/03 19:52:25;;;;;;;6.10;2.22;;;16.50;99.90;;;;;;14663618;23;20045;-64
